createdAt,value
2022-11-04T00:02:37.351Z,11.77
2022-11-04T00:07:57.807Z,11.77
2022-11-04T00:12:59.537Z,11.74
2022-11-04T00:18:01.276Z,11.75
2022-11-04T00:23:35.648Z,11.73
2022-11-04T00:28:43.458Z,11.72
2022-11-04T00:33:46.556Z,11.72
2022-11-04T00:38:48.462Z,11.72
2022-11-04T00:43:50.193Z,11.72
2022-11-04T00:48:52.019Z,11.72
2022-11-04T00:53:54.070Z,11.69
2022-11-04T00:58:55.859Z,11.68
2022-11-04T01:03:57.736Z,11.68
2022-11-04T01:09:02.422Z,11.69
2022-11-04T01:14:05.775Z,11.69
2022-11-04T01:19:07.794Z,11.72
2022-11-04T01:24:09.531Z,11.73
2022-11-04T01:29:14.329Z,11.74
2022-11-04T01:34:16.109Z,11.74
2022-11-04T01:39:17.943Z,11.74
2022-11-04T01:44:41.544Z,11.77
2022-11-04T01:49:47.711Z,11.76
2022-11-04T01:54:52.468Z,11.78
2022-11-04T01:59:55.483Z,11.79
2022-11-04T02:04:58.706Z,11.83
2022-11-04T02:10:00.807Z,11.85
2022-11-04T02:15:03.518Z,11.90
2022-11-04T02:20:28.274Z,11.94
2022-11-04T02:25:51.268Z,11.97
2022-11-04T02:31:01.982Z,11.97
2022-11-04T02:36:19.244Z,11.99
2022-11-04T02:41:31.117Z,12.01
2022-11-04T02:46:40.824Z,12.03
2022-11-04T02:52:05.074Z,12.04
2022-11-04T02:57:13.218Z,12.03
2022-11-04T03:02:21.135Z,12.06
2022-11-04T03:07:28.926Z,12.10
2022-11-04T03:12:42.533Z,12.12
2022-11-04T03:17:54.895Z,12.11
2022-11-04T03:23:00.351Z,12.10
2022-11-04T03:28:47.961Z,12.11
2022-11-04T03:33:52.643Z,12.08
2022-11-04T03:38:54.551Z,12.09
2022-11-04T03:43:56.362Z,12.12
2022-11-04T03:49:00.656Z,12.12
2022-11-04T03:54:02.650Z,12.12
2022-11-04T03:59:30.689Z,12.11
2022-11-04T04:04:38.749Z,12.10
2022-11-04T04:09:54.458Z,12.07
2022-11-04T04:15:07.665Z,12.05
2022-11-04T04:20:23.665Z,12.05
2022-11-04T04:25:47.571Z,12.08
2022-11-04T04:30:49.972Z,12.03
2022-11-04T04:35:56.580Z,11.98
2022-11-04T04:41:25.127Z,11.95
2022-11-04T04:46:29.916Z,11.90
2022-11-04T04:51:32.804Z,11.87
2022-11-04T04:56:34.674Z,11.88
2022-11-04T05:01:36.697Z,11.91
2022-11-04T05:06:38.688Z,11.94
2022-11-04T05:11:40.798Z,11.97
2022-11-04T05:16:42.681Z,11.98
2022-11-04T05:21:44.510Z,11.99
2022-11-04T05:26:46.343Z,12.00
2022-11-04T05:31:48.370Z,12.00
2022-11-04T05:36:50.170Z,12.00
2022-11-04T05:41:52.147Z,12.01
2022-11-04T05:46:53.916Z,11.99
2022-11-04T05:51:56.180Z,11.99
2022-11-04T05:56:58.625Z,11.97
2022-11-04T06:02:00.692Z,11.98
2022-11-04T06:07:02.688Z,11.97
2022-11-04T06:12:15.321Z,11.97
2022-11-04T06:17:20.358Z,11.95
2022-11-04T06:22:22.334Z,11.94
2022-11-04T06:27:24.707Z,11.96
2022-11-04T06:32:26.728Z,11.96
2022-11-04T06:37:28.664Z,11.97
2022-11-04T06:42:30.394Z,11.97
2022-11-04T06:47:32.244Z,12.02
2022-11-04T06:52:38.060Z,12.01
2022-11-04T06:57:42.964Z,12.03
2022-11-04T07:02:45.173Z,12.05
2022-11-04T07:07:47.589Z,12.10
2022-11-04T07:12:49.569Z,12.15
2022-11-04T07:17:51.436Z,12.20
2022-11-04T07:22:54.969Z,12.27
2022-11-04T07:28:04.338Z,12.33
2022-11-04T07:33:06.853Z,12.39
2022-11-04T07:38:08.942Z,12.39
2022-11-04T07:43:10.952Z,12.43
2022-11-04T07:48:13.539Z,12.45
2022-11-04T07:53:15.370Z,12.45
2022-11-04T07:58:19.568Z,12.44
2022-11-04T08:03:21.570Z,12.42
2022-11-04T08:08:24.397Z,12.39
2022-11-04T08:13:30.797Z,12.38
2022-11-04T08:18:34.616Z,12.40
2022-11-04T08:23:37.067Z,12.40
2022-11-04T08:28:39.384Z,12.40
2022-11-04T08:33:42.120Z,12.40
2022-11-04T08:38:44.653Z,12.46
2022-11-04T08:43:47.747Z,12.52
2022-11-04T08:48:49.740Z,12.59
2022-11-04T08:53:51.702Z,12.66
2022-11-04T08:58:54.143Z,12.65
2022-11-04T09:03:56.113Z,12.63
2022-11-04T09:09:04.257Z,12.58
2022-11-04T09:14:07.076Z,12.53
2022-11-04T09:19:09.666Z,12.47
2022-11-04T09:24:12.696Z,12.43
2022-11-04T09:29:14.822Z,12.42
2022-11-04T09:34:18.153Z,12.40
2022-11-04T09:39:20.312Z,12.38
2022-11-04T09:44:30.513Z,12.35
2022-11-04T09:49:39.648Z,12.31
2022-11-04T09:55:02.338Z,12.28
2022-11-04T10:00:06.471Z,12.24
2022-11-04T10:05:48.436Z,12.20
2022-11-04T10:11:05.847Z,12.16
2022-11-04T10:16:32.288Z,12.11
2022-11-04T10:21:45.587Z,12.03
2022-11-04T10:26:59.997Z,11.97
2022-11-04T10:32:12.248Z,11.92
2022-11-04T10:37:14.254Z,11.86
2022-11-04T10:42:24.871Z,11.82
2022-11-04T10:47:40.951Z,11.81
2022-11-04T10:52:43.226Z,11.80
2022-11-04T10:57:45.215Z,11.79
2022-11-04T11:02:48.145Z,11.76
2022-11-04T11:07:56.190Z,11.76
2022-11-04T11:13:05.184Z,11.75
2022-11-04T11:18:18.391Z,11.74
2022-11-04T11:23:39.295Z,11.73
2022-11-04T11:28:47.793Z,11.71
2022-11-04T11:33:53.186Z,11.72
2022-11-04T11:39:01.493Z,11.75
2022-11-04T11:44:20.393Z,11.74
2022-11-04T11:49:28.542Z,11.74
2022-11-04T11:54:35.576Z,11.73
2022-11-04T12:10:59.992Z,11.62
2022-11-04T12:16:38.866Z,11.59
2022-11-04T12:21:46.657Z,11.56
2022-11-04T12:27:29.393Z,11.57
2022-11-04T12:32:52.835Z,11.55
2022-11-04T12:38:13.318Z,11.57
2022-11-04T12:43:26.943Z,11.57
2022-11-04T12:48:50.744Z,11.57
2022-11-04T12:54:30.733Z,11.56
2022-11-04T13:00:01.707Z,11.53
2022-11-04T13:05:19.694Z,11.46
2022-11-04T13:11:04.649Z,11.44
2022-11-04T13:16:12.220Z,11.42
2022-11-04T13:21:21.915Z,11.41
2022-11-04T13:26:25.033Z,11.44
2022-11-04T13:31:42.590Z,11.47
2022-11-04T13:36:58.180Z,11.47
2022-11-04T13:42:21.926Z,11.47
2022-11-04T13:47:32.367Z,11.45
2022-11-04T13:52:52.300Z,11.41
2022-11-04T13:57:59.444Z,11.36
2022-11-04T14:03:27.166Z,11.34
2022-11-04T14:08:30.125Z,11.30
2022-11-04T14:13:35.089Z,11.26
2022-11-04T14:18:43.270Z,11.24
2022-11-04T14:23:52.381Z,11.24
2022-11-04T14:29:06.324Z,11.22
2022-11-04T14:34:23.963Z,11.17
2022-11-04T14:39:39.442Z,11.18
2022-11-04T14:44:50.646Z,11.17
2022-11-04T14:49:58.677Z,11.14
2022-11-04T14:55:20.663Z,11.17
2022-11-04T15:00:34.908Z,11.11
2022-11-04T15:05:38.946Z,11.08
2022-11-04T15:10:41.052Z,11.06
2022-11-04T15:15:49.032Z,11.03
2022-11-04T15:20:52.924Z,11.03
2022-11-04T15:25:57.055Z,11.01
2022-11-04T15:31:03.061Z,11.03
2022-11-04T15:36:08.380Z,11.04
2022-11-04T15:41:30.036Z,11.01
2022-11-04T15:46:34.256Z,11.01
2022-11-04T15:51:41.979Z,11.01
2022-11-04T15:56:51.905Z,10.97
2022-11-04T16:01:54.850Z,10.96
2022-11-04T16:07:05.218Z,10.97
2022-11-04T16:12:29.015Z,10.97
2022-11-04T16:17:31.929Z,10.95
2022-11-04T16:22:40.884Z,10.94
2022-11-04T16:27:45.822Z,10.95
2022-11-04T16:32:50.459Z,10.95
2022-11-04T16:37:54.460Z,10.93
2022-11-04T16:42:57.851Z,10.88
2022-11-04T16:48:00.217Z,10.85
2022-11-04T16:53:04.117Z,10.81
2022-11-04T16:58:06.104Z,10.76
2022-11-04T17:03:22.950Z,10.76
2022-11-04T17:08:26.292Z,10.74
2022-11-04T17:13:32.112Z,10.72
2022-11-04T17:18:38.840Z,10.72
2022-11-04T17:23:41.970Z,10.73
2022-11-04T17:28:43.840Z,10.75
2022-11-04T17:33:46.250Z,10.73
2022-11-04T17:38:48.457Z,10.71
2022-11-04T17:44:02.378Z,10.70
2022-11-04T17:49:10.056Z,10.66
2022-11-04T17:54:12.430Z,10.65
2022-11-04T17:59:15.867Z,10.66
2022-11-04T18:04:22.912Z,10.64
2022-11-04T18:09:24.833Z,10.64
2022-11-04T18:14:26.800Z,10.65
2022-11-04T18:19:28.826Z,10.63
2022-11-04T18:24:30.988Z,10.63
2022-11-04T18:29:32.940Z,10.63
2022-11-04T18:34:34.943Z,10.64
2022-11-04T18:39:38.399Z,10.66
2022-11-04T18:44:40.667Z,10.66
2022-11-04T18:49:42.643Z,10.63
2022-11-04T18:54:44.653Z,10.63
2022-11-04T18:59:46.586Z,10.60
2022-11-04T19:04:48.455Z,10.59
2022-11-04T19:09:50.329Z,10.57
2022-11-04T19:14:52.745Z,10.54
2022-11-04T19:19:58.267Z,10.50
2022-11-04T19:25:00.204Z,10.48
2022-11-04T19:30:02.206Z,10.46
2022-11-04T19:35:04.507Z,10.48
2022-11-04T19:40:07.119Z,10.49
2022-11-04T19:45:10.899Z,10.49
2022-11-04T19:50:13.247Z,10.47
2022-11-04T19:55:15.632Z,10.44
2022-11-04T20:00:18.128Z,10.43
2022-11-04T20:05:19.974Z,10.42
2022-11-04T20:10:23.490Z,10.42
2022-11-04T20:15:26.486Z,10.40
2022-11-04T20:20:28.537Z,10.40
2022-11-04T20:25:30.352Z,10.39
2022-11-04T20:30:32.200Z,10.40
2022-11-04T20:35:34.986Z,10.40
2022-11-04T20:40:36.873Z,10.42
2022-11-04T20:45:39.254Z,10.42
2022-11-04T20:50:41.171Z,10.42
2022-11-04T20:55:42.924Z,10.41
2022-11-04T21:00:44.767Z,10.39
2022-11-04T21:05:46.535Z,10.38
2022-11-04T21:10:56.453Z,10.37
2022-11-04T21:16:00.011Z,10.34
2022-11-04T21:21:06.822Z,10.32
2022-11-04T21:26:14.116Z,10.32
2022-11-04T21:31:15.928Z,10.32
2022-11-04T21:36:19.215Z,10.32
2022-11-04T21:41:25.459Z,10.31
2022-11-04T21:46:30.581Z,10.31
2022-11-04T21:51:34.505Z,10.28
2022-11-04T21:56:36.412Z,10.28
2022-11-04T22:01:38.332Z,10.28
2022-11-04T22:06:43.303Z,10.28
2022-11-04T22:11:45.097Z,10.28
2022-11-04T22:16:46.839Z,10.26
2022-11-04T22:21:48.733Z,10.25
2022-11-04T22:26:50.849Z,10.26
2022-11-04T22:31:52.682Z,10.24
2022-11-04T22:36:54.593Z,10.21
2022-11-04T22:41:56.415Z,10.20
2022-11-04T22:46:58.194Z,10.21
2022-11-04T22:51:59.916Z,10.17
2022-11-04T22:57:01.651Z,10.13
2022-11-04T23:02:03.695Z,10.11
2022-11-04T23:07:05.934Z,10.10
2022-11-04T23:12:27.421Z,10.09
2022-11-04T23:17:47.723Z,10.07
2022-11-04T23:23:08.092Z,10.05
2022-11-04T23:28:28.725Z,10.03
2022-11-04T23:33:48.907Z,10.02
2022-11-04T23:38:50.666Z,10.04
2022-11-04T23:43:52.652Z,10.05
2022-11-04T23:49:12.758Z,10.04
2022-11-04T23:54:33.352Z,10.02
2022-11-04T23:59:53.562Z,10.01
